sensor_id;sensor_type;location;lat;lon;timestamp;P1;durP1;ratioP1;P2;durP2;ratioP2
37859;SDS011;23698;52.014;5.190;2023-02-25T00:02:23;22.27;;;2.83;;
37859;SDS011;23698;52.014;5.190;2023-02-25T00:05:10;18.70;;;2.42;;
37859;SDS011;23698;52.014;5.190;2023-02-25T00:07:57;14.50;;;2.20;;
37859;SDS011;23698;52.014;5.190;2023-02-25T00:10:45;19.90;;;2.80;;
37859;SDS011;23698;52.014;5.190;2023-02-25T00:13:42;16.33;;;3.33;;
37859;SDS011;23698;52.014;5.190;2023-02-25T00:16:28;26.08;;;2.50;;
37859;SDS011;23698;52.014;5.190;2023-02-25T00:19:16;11.52;;;2.00;;
37859;SDS011;23698;52.014;5.190;2023-02-25T00:22:03;14.23;;;1.58;;
37859;SDS011;23698;52.014;5.190;2023-02-25T00:24:50;6.40;;;1.75;;
37859;SDS011;23698;52.014;5.190;2023-02-25T00:27:39;10.48;;;2.42;;
37859;SDS011;23698;52.014;5.190;2023-02-25T00:30:27;9.17;;;1.80;;
37859;SDS011;23698;52.014;5.190;2023-02-25T00:33:14;11.18;;;1.85;;
37859;SDS011;23698;52.014;5.190;2023-02-25T00:36:04;10.13;;;1.67;;
37859;SDS011;23698;52.014;5.190;2023-02-25T00:38:53;10.32;;;1.60;;
37859;SDS011;23698;52.014;5.190;2023-02-25T00:41:41;12.65;;;2.30;;
37859;SDS011;23698;52.014;5.190;2023-02-25T00:44:29;6.00;;;1.00;;
37859;SDS011;23698;52.014;5.190;2023-02-25T00:47:16;9.45;;;1.77;;
37859;SDS011;23698;52.014;5.190;2023-02-25T00:50:05;15.82;;;1.88;;
37859;SDS011;23698;52.014;5.190;2023-02-25T00:52:53;10.63;;;1.85;;
37859;SDS011;23698;52.014;5.190;2023-02-25T00:55:40;7.55;;;1.33;;
37859;SDS011;23698;52.014;5.190;2023-02-25T00:58:28;13.65;;;1.83;;
37859;SDS011;23698;52.014;5.190;2023-02-25T01:01:17;8.35;;;2.08;;
37859;SDS011;23698;52.014;5.190;2023-02-25T01:04:05;14.45;;;1.75;;
37859;SDS011;23698;52.014;5.190;2023-02-25T01:06:52;12.48;;;1.73;;
37859;SDS011;23698;52.014;5.190;2023-02-25T01:09:39;7.28;;;1.45;;
37859;SDS011;23698;52.014;5.190;2023-02-25T01:12:25;9.32;;;1.27;;
37859;SDS011;23698;52.014;5.190;2023-02-25T01:15:12;10.73;;;1.92;;
37859;SDS011;23698;52.014;5.190;2023-02-25T01:17:59;20.83;;;1.60;;
37859;SDS011;23698;52.014;5.190;2023-02-25T01:20:46;13.57;;;1.77;;
37859;SDS011;23698;52.014;5.190;2023-02-25T01:23:32;11.02;;;1.98;;
37859;SDS011;23698;52.014;5.190;2023-02-25T01:26:19;14.60;;;1.75;;
37859;SDS011;23698;52.014;5.190;2023-02-25T01:29:07;21.13;;;2.28;;
37859;SDS011;23698;52.014;5.190;2023-02-25T01:31:54;15.90;;;2.65;;
37859;SDS011;23698;52.014;5.190;2023-02-25T01:34:43;14.38;;;2.03;;
37859;SDS011;23698;52.014;5.190;2023-02-25T01:37:30;14.35;;;1.65;;
37859;SDS011;23698;52.014;5.190;2023-02-25T01:40:16;17.42;;;2.47;;
37859;SDS011;23698;52.014;5.190;2023-02-25T01:43:03;15.80;;;2.75;;
37859;SDS011;23698;52.014;5.190;2023-02-25T01:45:51;15.52;;;2.00;;
37859;SDS011;23698;52.014;5.190;2023-02-25T01:48:38;12.45;;;2.72;;
37859;SDS011;23698;52.014;5.190;2023-02-25T01:51:27;23.02;;;3.80;;
37859;SDS011;23698;52.014;5.190;2023-02-25T01:54:17;21.58;;;2.88;;
37859;SDS011;23698;52.014;5.190;2023-02-25T01:57:05;17.83;;;2.38;;
37859;SDS011;23698;52.014;5.190;2023-02-25T01:59:55;16.80;;;2.03;;
37859;SDS011;23698;52.014;5.190;2023-02-25T02:02:41;25.88;;;3.03;;
37859;SDS011;23698;52.014;5.190;2023-02-25T02:05:36;19.20;;;2.70;;
37859;SDS011;23698;52.014;5.190;2023-02-25T02:08:29;16.48;;;2.45;;
37859;SDS011;23698;52.014;5.190;2023-02-25T02:11:18;20.77;;;2.63;;
37859;SDS011;23698;52.014;5.190;2023-02-25T02:14:04;18.65;;;2.70;;
37859;SDS011;23698;52.014;5.190;2023-02-25T02:17:05;18.50;;;2.63;;
37859;SDS011;23698;52.014;5.190;2023-02-25T02:20:07;13.55;;;2.47;;
37859;SDS011;23698;52.014;5.190;2023-02-25T02:23:05;14.77;;;2.20;;
37859;SDS011;23698;52.014;5.190;2023-02-25T02:26:16;22.15;;;2.80;;
37859;SDS011;23698;52.014;5.190;2023-02-25T02:32:48;19.70;;;2.30;;
37859;SDS011;23698;52.014;5.190;2023-02-25T02:35:44;16.75;;;2.30;;
37859;SDS011;23698;52.014;5.190;2023-02-25T02:38:36;16.45;;;2.40;;
37859;SDS011;23698;52.014;5.190;2023-02-25T02:41:32;16.27;;;2.40;;
37859;SDS011;23698;52.014;5.190;2023-02-25T02:44:21;19.67;;;3.58;;
37859;SDS011;23698;52.014;5.190;2023-02-25T02:47:13;14.25;;;1.88;;
37859;SDS011;23698;52.014;5.190;2023-02-25T02:50:06;18.17;;;1.98;;
37859;SDS011;23698;52.014;5.190;2023-02-25T02:52:55;13.05;;;2.00;;
37859;SDS011;23698;52.014;5.190;2023-02-25T02:55:46;21.90;;;3.47;;
37859;SDS011;23698;52.014;5.190;2023-02-25T02:58:37;26.67;;;3.97;;
37859;SDS011;23698;52.014;5.190;2023-02-25T03:01:28;16.33;;;2.10;;
37859;SDS011;23698;52.014;5.190;2023-02-25T03:04:19;18.67;;;2.50;;
37859;SDS011;23698;52.014;5.190;2023-02-25T03:07:13;28.48;;;2.65;;
37859;SDS011;23698;52.014;5.190;2023-02-25T03:10:03;21.38;;;3.58;;
37859;SDS011;23698;52.014;5.190;2023-02-25T03:12:53;28.63;;;4.07;;
37859;SDS011;23698;52.014;5.190;2023-02-25T03:15:40;25.52;;;4.40;;
37859;SDS011;23698;52.014;5.190;2023-02-25T03:18:29;24.95;;;3.65;;
37859;SDS011;23698;52.014;5.190;2023-02-25T03:21:24;21.90;;;4.45;;
37859;SDS011;23698;52.014;5.190;2023-02-25T03:24:19;24.88;;;4.07;;
37859;SDS011;23698;52.014;5.190;2023-02-25T03:27:19;21.35;;;4.60;;
37859;SDS011;23698;52.014;5.190;2023-02-25T03:30:14;22.75;;;3.53;;
37859;SDS011;23698;52.014;5.190;2023-02-25T03:33:05;27.33;;;3.22;;
37859;SDS011;23698;52.014;5.190;2023-02-25T03:35:56;18.27;;;3.03;;
37859;SDS011;23698;52.014;5.190;2023-02-25T03:38:45;23.63;;;3.35;;
37859;SDS011;23698;52.014;5.190;2023-02-25T03:41:37;16.27;;;2.80;;
37859;SDS011;23698;52.014;5.190;2023-02-25T03:44:29;16.30;;;2.72;;
37859;SDS011;23698;52.014;5.190;2023-02-25T03:47:18;15.82;;;2.70;;
37859;SDS011;23698;52.014;5.190;2023-02-25T03:50:10;19.77;;;2.78;;
37859;SDS011;23698;52.014;5.190;2023-02-25T03:53:03;22.85;;;2.97;;
37859;SDS011;23698;52.014;5.190;2023-02-25T03:56:09;26.00;;;3.40;;
37859;SDS011;23698;52.014;5.190;2023-02-25T03:59:01;30.02;;;3.58;;
37859;SDS011;23698;52.014;5.190;2023-02-25T04:01:48;18.25;;;3.50;;
37859;SDS011;23698;52.014;5.190;2023-02-25T04:04:38;21.13;;;3.13;;
37859;SDS011;23698;52.014;5.190;2023-02-25T04:07:24;21.55;;;2.40;;
37859;SDS011;23698;52.014;5.190;2023-02-25T04:10:13;22.35;;;3.35;;
37859;SDS011;23698;52.014;5.190;2023-02-25T04:13:02;26.98;;;3.13;;
37859;SDS011;23698;52.014;5.190;2023-02-25T04:15:51;17.17;;;3.05;;
37859;SDS011;23698;52.014;5.190;2023-02-25T04:18:37;24.05;;;3.00;;
37859;SDS011;23698;52.014;5.190;2023-02-25T04:21:25;20.65;;;2.80;;
37859;SDS011;23698;52.014;5.190;2023-02-25T04:24:14;27.08;;;3.03;;
37859;SDS011;23698;52.014;5.190;2023-02-25T04:27:00;24.15;;;2.83;;
37859;SDS011;23698;52.014;5.190;2023-02-25T04:29:47;25.60;;;3.30;;
37859;SDS011;23698;52.014;5.190;2023-02-25T04:32:35;20.80;;;2.90;;
37859;SDS011;23698;52.014;5.190;2023-02-25T04:35:21;13.43;;;2.22;;
37859;SDS011;23698;52.014;5.190;2023-02-25T04:38:08;25.13;;;3.85;;
37859;SDS011;23698;52.014;5.190;2023-02-25T04:40:55;25.25;;;3.30;;
37859;SDS011;23698;52.014;5.190;2023-02-25T04:43:41;18.67;;;3.35;;
37859;SDS011;23698;52.014;5.190;2023-02-25T04:46:32;21.05;;;2.78;;
37859;SDS011;23698;52.014;5.190;2023-02-25T04:49:21;20.38;;;2.97;;
37859;SDS011;23698;52.014;5.190;2023-02-25T04:52:08;24.33;;;2.47;;
37859;SDS011;23698;52.014;5.190;2023-02-25T04:54:55;15.57;;;2.78;;
37859;SDS011;23698;52.014;5.190;2023-02-25T04:57:41;19.15;;;2.67;;
37859;SDS011;23698;52.014;5.190;2023-02-25T05:00:28;19.50;;;2.85;;
37859;SDS011;23698;52.014;5.190;2023-02-25T05:03:14;17.40;;;2.47;;
37859;SDS011;23698;52.014;5.190;2023-02-25T05:06:03;35.25;;;4.50;;
37859;SDS011;23698;52.014;5.190;2023-02-25T05:08:50;25.02;;;3.25;;
37859;SDS011;23698;52.014;5.190;2023-02-25T05:11:36;22.83;;;3.03;;
37859;SDS011;23698;52.014;5.190;2023-02-25T05:14:23;22.67;;;2.58;;
37859;SDS011;23698;52.014;5.190;2023-02-25T05:17:10;23.60;;;4.18;;
37859;SDS011;23698;52.014;5.190;2023-02-25T05:19:57;12.48;;;2.00;;
37859;SDS011;23698;52.014;5.190;2023-02-25T05:22:45;17.98;;;3.17;;
37859;SDS011;23698;52.014;5.190;2023-02-25T05:25:31;22.15;;;3.13;;
37859;SDS011;23698;52.014;5.190;2023-02-25T05:28:19;22.50;;;3.10;;
37859;SDS011;23698;52.014;5.190;2023-02-25T05:31:06;15.48;;;2.78;;
37859;SDS011;23698;52.014;5.190;2023-02-25T05:33:54;12.02;;;1.95;;
37859;SDS011;23698;52.014;5.190;2023-02-25T05:36:41;13.82;;;2.00;;
37859;SDS011;23698;52.014;5.190;2023-02-25T05:39:29;14.23;;;2.53;;
37859;SDS011;23698;52.014;5.190;2023-02-25T05:42:16;25.20;;;2.78;;
37859;SDS011;23698;52.014;5.190;2023-02-25T05:45:02;28.80;;;4.50;;
37859;SDS011;23698;52.014;5.190;2023-02-25T05:47:49;19.98;;;3.17;;
37859;SDS011;23698;52.014;5.190;2023-02-25T05:50:35;19.70;;;3.03;;
37859;SDS011;23698;52.014;5.190;2023-02-25T05:53:26;12.82;;;2.25;;
37859;SDS011;23698;52.014;5.190;2023-02-25T05:56:14;16.35;;;2.47;;
37859;SDS011;23698;52.014;5.190;2023-02-25T05:59:02;13.70;;;2.10;;
37859;SDS011;23698;52.014;5.190;2023-02-25T06:01:49;11.70;;;2.60;;
37859;SDS011;23698;52.014;5.190;2023-02-25T06:04:36;14.90;;;2.42;;
37859;SDS011;23698;52.014;5.190;2023-02-25T06:07:22;12.57;;;2.30;;
37859;SDS011;23698;52.014;5.190;2023-02-25T06:10:09;18.55;;;2.70;;
37859;SDS011;23698;52.014;5.190;2023-02-25T06:12:58;17.60;;;2.30;;
37859;SDS011;23698;52.014;5.190;2023-02-25T06:15:44;15.13;;;2.88;;
37859;SDS011;23698;52.014;5.190;2023-02-25T06:18:31;18.75;;;2.50;;
37859;SDS011;23698;52.014;5.190;2023-02-25T06:21:20;18.75;;;2.63;;
37859;SDS011;23698;52.014;5.190;2023-02-25T06:24:07;19.58;;;2.65;;
37859;SDS011;23698;52.014;5.190;2023-02-25T06:26:55;13.02;;;2.30;;
37859;SDS011;23698;52.014;5.190;2023-02-25T06:29:45;17.55;;;3.25;;
37859;SDS011;23698;52.014;5.190;2023-02-25T06:35:19;24.90;;;3.28;;
37859;SDS011;23698;52.014;5.190;2023-02-25T06:38:07;18.50;;;2.47;;
37859;SDS011;23698;52.014;5.190;2023-02-25T06:40:54;17.02;;;2.92;;
37859;SDS011;23698;52.014;5.190;2023-02-25T06:43:40;23.02;;;2.72;;
37859;SDS011;23698;52.014;5.190;2023-02-25T06:46:28;23.10;;;2.65;;
37859;SDS011;23698;52.014;5.190;2023-02-25T06:49:16;22.00;;;2.85;;
37859;SDS011;23698;52.014;5.190;2023-02-25T06:52:02;18.75;;;2.47;;
37859;SDS011;23698;52.014;5.190;2023-02-25T06:54:49;16.00;;;2.80;;
37859;SDS011;23698;52.014;5.190;2023-02-25T06:57:36;25.95;;;2.88;;
37859;SDS011;23698;52.014;5.190;2023-02-25T07:00:23;29.00;;;2.67;;
37859;SDS011;23698;52.014;5.190;2023-02-25T07:03:11;20.25;;;2.35;;
37859;SDS011;23698;52.014;5.190;2023-02-25T07:05:58;26.10;;;3.47;;
37859;SDS011;23698;52.014;5.190;2023-02-25T07:08:45;21.30;;;3.15;;
37859;SDS011;23698;52.014;5.190;2023-02-25T07:11:32;23.38;;;3.00;;
37859;SDS011;23698;52.014;5.190;2023-02-25T07:14:20;28.33;;;3.65;;
37859;SDS011;23698;52.014;5.190;2023-02-25T07:17:07;22.67;;;3.17;;
37859;SDS011;23698;52.014;5.190;2023-02-25T07:19:55;25.88;;;3.08;;
37859;SDS011;23698;52.014;5.190;2023-02-25T07:22:42;17.27;;;2.53;;
37859;SDS011;23698;52.014;5.190;2023-02-25T07:25:28;16.17;;;2.55;;
37859;SDS011;23698;52.014;5.190;2023-02-25T07:28:15;23.35;;;3.55;;
37859;SDS011;23698;52.014;5.190;2023-02-25T07:31:02;31.30;;;2.95;;
37859;SDS011;23698;52.014;5.190;2023-02-25T07:33:50;23.55;;;3.78;;
37859;SDS011;23698;52.014;5.190;2023-02-25T07:36:38;23.10;;;2.33;;
37859;SDS011;23698;52.014;5.190;2023-02-25T07:39:25;20.83;;;2.92;;
37859;SDS011;23698;52.014;5.190;2023-02-25T07:42:11;20.23;;;3.00;;
37859;SDS011;23698;52.014;5.190;2023-02-25T07:45:05;18.40;;;2.72;;
37859;SDS011;23698;52.014;5.190;2023-02-25T07:47:53;24.88;;;2.65;;
37859;SDS011;23698;52.014;5.190;2023-02-25T07:50:40;20.45;;;2.55;;
37859;SDS011;23698;52.014;5.190;2023-02-25T07:53:30;20.00;;;2.92;;
37859;SDS011;23698;52.014;5.190;2023-02-25T07:56:18;23.75;;;5.28;;
37859;SDS011;23698;52.014;5.190;2023-02-25T07:59:06;19.10;;;3.38;;
37859;SDS011;23698;52.014;5.190;2023-02-25T08:01:53;21.27;;;2.88;;
37859;SDS011;23698;52.014;5.190;2023-02-25T08:04:40;16.00;;;2.25;;
37859;SDS011;23698;52.014;5.190;2023-02-25T08:07:27;18.65;;;2.78;;
37859;SDS011;23698;52.014;5.190;2023-02-25T08:10:15;37.05;;;3.28;;
37859;SDS011;23698;52.014;5.190;2023-02-25T08:13:02;20.25;;;2.83;;
37859;SDS011;23698;52.014;5.190;2023-02-25T08:15:49;25.00;;;3.10;;
37859;SDS011;23698;52.014;5.190;2023-02-25T08:18:36;15.43;;;2.72;;
37859;SDS011;23698;52.014;5.190;2023-02-25T08:21:23;19.42;;;2.30;;
37859;SDS011;23698;52.014;5.190;2023-02-25T08:24:10;13.98;;;2.35;;
37859;SDS011;23698;52.014;5.190;2023-02-25T08:26:59;15.52;;;2.85;;
37859;SDS011;23698;52.014;5.190;2023-02-25T08:29:46;22.70;;;2.72;;
37859;SDS011;23698;52.014;5.190;2023-02-25T08:32:34;18.13;;;2.10;;
37859;SDS011;23698;52.014;5.190;2023-02-25T08:35:21;14.93;;;2.17;;
37859;SDS011;23698;52.014;5.190;2023-02-25T08:38:10;10.07;;;2.08;;
37859;SDS011;23698;52.014;5.190;2023-02-25T08:40:58;15.55;;;3.08;;
37859;SDS011;23698;52.014;5.190;2023-02-25T08:43:48;18.48;;;2.70;;
37859;SDS011;23698;52.014;5.190;2023-02-25T08:46:38;22.35;;;3.10;;
37859;SDS011;23698;52.014;5.190;2023-02-25T08:49:25;14.68;;;2.17;;
37859;SDS011;23698;52.014;5.190;2023-02-25T08:52:11;15.30;;;2.33;;
37859;SDS011;23698;52.014;5.190;2023-02-25T08:54:58;17.65;;;2.42;;
37859;SDS011;23698;52.014;5.190;2023-02-25T08:57:46;20.85;;;3.22;;
37859;SDS011;23698;52.014;5.190;2023-02-25T09:00:34;15.75;;;2.58;;
37859;SDS011;23698;52.014;5.190;2023-02-25T09:03:22;25.80;;;3.28;;
37859;SDS011;23698;52.014;5.190;2023-02-25T09:06:09;16.92;;;2.22;;
37859;SDS011;23698;52.014;5.190;2023-02-25T09:08:56;12.80;;;2.50;;
37859;SDS011;23698;52.014;5.190;2023-02-25T09:11:43;18.73;;;3.20;;
37859;SDS011;23698;52.014;5.190;2023-02-25T09:14:32;13.40;;;2.85;;
37859;SDS011;23698;52.014;5.190;2023-02-25T09:17:20;11.68;;;1.83;;
37859;SDS011;23698;52.014;5.190;2023-02-25T09:20:07;12.32;;;1.40;;
37859;SDS011;23698;52.014;5.190;2023-02-25T09:22:55;9.30;;;1.77;;
37859;SDS011;23698;52.014;5.190;2023-02-25T09:25:42;6.88;;;1.48;;
37859;SDS011;23698;52.014;5.190;2023-02-25T09:28:29;5.15;;;1.25;;
37859;SDS011;23698;52.014;5.190;2023-02-25T09:31:16;3.05;;;1.23;;
37859;SDS011;23698;52.014;5.190;2023-02-25T09:34:06;8.35;;;1.35;;
37859;SDS011;23698;52.014;5.190;2023-02-25T09:36:54;10.18;;;1.45;;
37859;SDS011;23698;52.014;5.190;2023-02-25T09:39:41;10.05;;;1.25;;
37859;SDS011;23698;52.014;5.190;2023-02-25T09:42:30;8.20;;;1.10;;
37859;SDS011;23698;52.014;5.190;2023-02-25T09:45:29;6.38;;;1.10;;
37859;SDS011;23698;52.014;5.190;2023-02-25T09:48:18;7.38;;;1.27;;
37859;SDS011;23698;52.014;5.190;2023-02-25T09:51:16;7.75;;;1.40;;
37859;SDS011;23698;52.014;5.190;2023-02-25T09:54:08;7.40;;;1.30;;
37859;SDS011;23698;52.014;5.190;2023-02-25T09:57:01;6.95;;;1.05;;
37859;SDS011;23698;52.014;5.190;2023-02-25T09:59:50;6.93;;;1.13;;
37859;SDS011;23698;52.014;5.190;2023-02-25T10:02:39;9.27;;;1.23;;
37859;SDS011;23698;52.014;5.190;2023-02-25T10:05:35;5.75;;;0.68;;
37859;SDS011;23698;52.014;5.190;2023-02-25T10:08:36;6.88;;;0.93;;
37859;SDS011;23698;52.014;5.190;2023-02-25T10:11:34;7.18;;;1.02;;
37859;SDS011;23698;52.014;5.190;2023-02-25T10:14:33;2.97;;;1.23;;
37859;SDS011;23698;52.014;5.190;2023-02-25T10:17:39;5.55;;;0.90;;
37859;SDS011;23698;52.014;5.190;2023-02-25T10:20:36;5.00;;;0.70;;
37859;SDS011;23698;52.014;5.190;2023-02-25T10:23:39;5.03;;;1.25;;
37859;SDS011;23698;52.014;5.190;2023-02-25T10:26:36;8.73;;;1.17;;
37859;SDS011;23698;52.014;5.190;2023-02-25T10:29:28;5.47;;;0.90;;
37859;SDS011;23698;52.014;5.190;2023-02-25T10:32:21;4.70;;;0.80;;
37859;SDS011;23698;52.014;5.190;2023-02-25T10:35:12;5.17;;;0.87;;
37859;SDS011;23698;52.014;5.190;2023-02-25T10:38:01;2.47;;;0.63;;
37859;SDS011;23698;52.014;5.190;2023-02-25T10:40:49;7.60;;;1.10;;
37859;SDS011;23698;52.014;5.190;2023-02-25T10:43:38;3.50;;;1.02;;
37859;SDS011;23698;52.014;5.190;2023-02-25T10:46:28;5.38;;;1.08;;
37859;SDS011;23698;52.014;5.190;2023-02-25T10:49:19;4.50;;;1.10;;
37859;SDS011;23698;52.014;5.190;2023-02-25T10:52:13;4.18;;;0.80;;
37859;SDS011;23698;52.014;5.190;2023-02-25T10:55:01;8.75;;;1.17;;
37859;SDS011;23698;52.014;5.190;2023-02-25T10:57:49;11.43;;;1.30;;
37859;SDS011;23698;52.014;5.190;2023-02-25T11:00:36;9.27;;;1.15;;
37859;SDS011;23698;52.014;5.190;2023-02-25T11:03:24;6.40;;;1.27;;
37859;SDS011;23698;52.014;5.190;2023-02-25T11:06:19;5.32;;;1.15;;
37859;SDS011;23698;52.014;5.190;2023-02-25T11:12:21;7.97;;;0.85;;
37859;SDS011;23698;52.014;5.190;2023-02-25T11:15:27;6.88;;;1.10;;
37859;SDS011;23698;52.014;5.190;2023-02-25T11:21:17;6.95;;;1.10;;
37859;SDS011;23698;52.014;5.190;2023-02-25T11:24:15;7.18;;;1.35;;
37859;SDS011;23698;52.014;5.190;2023-02-25T11:27:05;6.43;;;1.25;;
37859;SDS011;23698;52.014;5.190;2023-02-25T11:29:54;4.93;;;0.90;;
37859;SDS011;23698;52.014;5.190;2023-02-25T11:32:51;8.88;;;1.20;;
37859;SDS011;23698;52.014;5.190;2023-02-25T11:35:42;8.98;;;1.27;;
37859;SDS011;23698;52.014;5.190;2023-02-25T11:38:31;9.07;;;0.85;;
37859;SDS011;23698;52.014;5.190;2023-02-25T11:41:20;4.40;;;0.98;;
37859;SDS011;23698;52.014;5.190;2023-02-25T11:44:16;7.90;;;1.20;;
37859;SDS011;23698;52.014;5.190;2023-02-25T11:47:17;8.38;;;1.63;;
37859;SDS011;23698;52.014;5.190;2023-02-25T11:50:18;9.70;;;2.08;;
37859;SDS011;23698;52.014;5.190;2023-02-25T11:53:11;4.57;;;1.23;;
37859;SDS011;23698;52.014;5.190;2023-02-25T11:56:11;9.55;;;1.05;;
37859;SDS011;23698;52.014;5.190;2023-02-25T11:59:13;8.68;;;1.20;;
37859;SDS011;23698;52.014;5.190;2023-02-25T12:02:25;6.18;;;1.10;;
37859;SDS011;23698;52.014;5.190;2023-02-25T12:05:33;8.38;;;1.33;;
37859;SDS011;23698;52.014;5.190;2023-02-25T12:08:33;7.63;;;1.30;;
37859;SDS011;23698;52.014;5.190;2023-02-25T12:18:06;7.85;;;1.30;;
37859;SDS011;23698;52.014;5.190;2023-02-25T12:24:38;8.13;;;1.20;;
37859;SDS011;23698;52.014;5.190;2023-02-25T12:27:38;7.03;;;1.40;;
37859;SDS011;23698;52.014;5.190;2023-02-25T12:34:18;6.80;;;1.90;;
37859;SDS011;23698;52.014;5.190;2023-02-25T12:37:26;7.15;;;1.35;;
37859;SDS011;23698;52.014;5.190;2023-02-25T12:40:37;7.60;;;1.48;;
37859;SDS011;23698;52.014;5.190;2023-02-25T12:43:47;4.88;;;0.95;;
37859;SDS011;23698;52.014;5.190;2023-02-25T12:46:45;11.10;;;1.48;;
37859;SDS011;23698;52.014;5.190;2023-02-25T12:52:43;6.95;;;1.20;;
37859;SDS011;23698;52.014;5.190;2023-02-25T12:55:51;5.78;;;1.30;;
37859;SDS011;23698;52.014;5.190;2023-02-25T12:59:02;5.88;;;2.08;;
37859;SDS011;23698;52.014;5.190;2023-02-25T13:05:38;4.97;;;1.17;;
37859;SDS011;23698;52.014;5.190;2023-02-25T13:08:38;4.88;;;1.23;;
37859;SDS011;23698;52.014;5.190;2023-02-25T13:11:41;10.20;;;1.70;;
37859;SDS011;23698;52.014;5.190;2023-02-25T13:14:56;4.20;;;0.90;;
37859;SDS011;23698;52.014;5.190;2023-02-25T13:18:02;6.72;;;1.38;;
37859;SDS011;23698;52.014;5.190;2023-02-25T13:21:03;7.18;;;0.95;;
37859;SDS011;23698;52.014;5.190;2023-02-25T13:24:10;6.28;;;0.90;;
37859;SDS011;23698;52.014;5.190;2023-02-25T13:30:31;5.75;;;0.90;;
37859;SDS011;23698;52.014;5.190;2023-02-25T13:33:31;6.05;;;1.10;;
37859;SDS011;23698;52.014;5.190;2023-02-25T13:36:51;7.15;;;1.88;;
37859;SDS011;23698;52.014;5.190;2023-02-25T13:39:53;11.35;;;1.50;;
37859;SDS011;23698;52.014;5.190;2023-02-25T13:42:58;5.97;;;1.02;;
37859;SDS011;23698;52.014;5.190;2023-02-25T13:49:22;11.57;;;1.45;;
37859;SDS011;23698;52.014;5.190;2023-02-25T13:52:20;7.28;;;1.63;;
37859;SDS011;23698;52.014;5.190;2023-02-25T13:55:22;10.80;;;2.17;;
37859;SDS011;23698;52.014;5.190;2023-02-25T13:58:34;9.30;;;1.50;;
37859;SDS011;23698;52.014;5.190;2023-02-25T14:04:57;5.18;;;1.40;;
37859;SDS011;23698;52.014;5.190;2023-02-25T14:08:04;6.60;;;1.05;;
37859;SDS011;23698;52.014;5.190;2023-02-25T14:11:00;6.90;;;1.17;;
37859;SDS011;23698;52.014;5.190;2023-02-25T14:14:03;14.45;;;0.98;;
37859;SDS011;23698;52.014;5.190;2023-02-25T14:17:19;4.00;;;0.90;;
37859;SDS011;23698;52.014;5.190;2023-02-25T14:20:22;6.35;;;0.98;;
37859;SDS011;23698;52.014;5.190;2023-02-25T14:23:21;3.10;;;0.70;;
37859;SDS011;23698;52.014;5.190;2023-02-25T14:26:21;4.38;;;1.23;;
37859;SDS011;23698;52.014;5.190;2023-02-25T14:35:07;8.57;;;1.40;;
37859;SDS011;23698;52.014;5.190;2023-02-25T14:38:07;6.88;;;1.00;;
37859;SDS011;23698;52.014;5.190;2023-02-25T14:40:58;7.03;;;1.50;;
37859;SDS011;23698;52.014;5.190;2023-02-25T14:43:58;7.53;;;1.20;;
37859;SDS011;23698;52.014;5.190;2023-02-25T14:46:50;5.13;;;1.20;;
37859;SDS011;23698;52.014;5.190;2023-02-25T14:49:42;5.40;;;1.30;;
37859;SDS011;23698;52.014;5.190;2023-02-25T14:59:46;5.78;;;1.15;;
37859;SDS011;23698;52.014;5.190;2023-02-25T15:02:56;4.75;;;0.85;;
37859;SDS011;23698;52.014;5.190;2023-02-25T15:06:18;7.63;;;1.58;;
37859;SDS011;23698;52.014;5.190;2023-02-25T15:12:54;8.77;;;1.73;;
37859;SDS011;23698;52.014;5.190;2023-02-25T15:16:19;6.93;;;1.30;;
37859;SDS011;23698;52.014;5.190;2023-02-25T15:19:34;10.25;;;0.98;;
37859;SDS011;23698;52.014;5.190;2023-02-25T15:22:42;19.02;;;2.03;;
37859;SDS011;23698;52.014;5.190;2023-02-25T15:25:43;7.20;;;1.33;;
37859;SDS011;23698;52.014;5.190;2023-02-25T15:28:36;6.55;;;1.27;;
37859;SDS011;23698;52.014;5.190;2023-02-25T15:31:25;11.80;;;1.48;;
37859;SDS011;23698;52.014;5.190;2023-02-25T15:37:26;9.27;;;1.65;;
37859;SDS011;23698;52.014;5.190;2023-02-25T15:43:41;4.97;;;1.08;;
37859;SDS011;23698;52.014;5.190;2023-02-25T15:46:42;8.60;;;1.30;;
37859;SDS011;23698;52.014;5.190;2023-02-25T15:49:31;13.35;;;1.73;;
37859;SDS011;23698;52.014;5.190;2023-02-25T15:55:42;8.32;;;1.10;;
37859;SDS011;23698;52.014;5.190;2023-02-25T15:58:43;6.15;;;1.30;;
37859;SDS011;23698;52.014;5.190;2023-02-25T16:01:40;5.90;;;1.40;;
37859;SDS011;23698;52.014;5.190;2023-02-25T16:04:43;6.35;;;2.00;;
37859;SDS011;23698;52.014;5.190;2023-02-25T16:07:33;3.13;;;0.88;;
37859;SDS011;23698;52.014;5.190;2023-02-25T16:10:24;4.13;;;0.80;;
37859;SDS011;23698;52.014;5.190;2023-02-25T16:16:03;7.43;;;0.85;;
37859;SDS011;23698;52.014;5.190;2023-02-25T16:18:51;4.73;;;0.80;;
37859;SDS011;23698;52.014;5.190;2023-02-25T16:21:41;7.93;;;1.00;;
37859;SDS011;23698;52.014;5.190;2023-02-25T16:24:32;6.70;;;1.30;;
37859;SDS011;23698;52.014;5.190;2023-02-25T16:27:30;7.18;;;1.60;;
37859;SDS011;23698;52.014;5.190;2023-02-25T16:30:29;5.90;;;1.08;;
37859;SDS011;23698;52.014;5.190;2023-02-25T16:33:24;6.35;;;1.25;;
37859;SDS011;23698;52.014;5.190;2023-02-25T16:36:23;9.60;;;1.30;;
37859;SDS011;23698;52.014;5.190;2023-02-25T16:39:18;10.20;;;1.73;;
37859;SDS011;23698;52.014;5.190;2023-02-25T16:42:10;7.10;;;1.23;;
37859;SDS011;23698;52.014;5.190;2023-02-25T16:44:59;5.82;;;1.13;;
37859;SDS011;23698;52.014;5.190;2023-02-25T16:47:52;5.38;;;1.13;;
37859;SDS011;23698;52.014;5.190;2023-02-25T16:50:43;5.88;;;1.10;;
37859;SDS011;23698;52.014;5.190;2023-02-25T16:53:32;8.15;;;1.40;;
37859;SDS011;23698;52.014;5.190;2023-02-25T16:56:20;13.52;;;1.80;;
37859;SDS011;23698;52.014;5.190;2023-02-25T16:59:15;9.23;;;1.33;;
37859;SDS011;23698;52.014;5.190;2023-02-25T17:02:18;9.55;;;1.65;;
37859;SDS011;23698;52.014;5.190;2023-02-25T17:05:09;10.93;;;1.50;;
37859;SDS011;23698;52.014;5.190;2023-02-25T17:08:14;10.32;;;1.77;;
37859;SDS011;23698;52.014;5.190;2023-02-25T17:11:03;6.28;;;1.38;;
37859;SDS011;23698;52.014;5.190;2023-02-25T17:13:51;13.48;;;2.08;;
37859;SDS011;23698;52.014;5.190;2023-02-25T17:16:41;7.97;;;2.13;;
37859;SDS011;23698;52.014;5.190;2023-02-25T17:19:28;10.05;;;1.50;;
37859;SDS011;23698;52.014;5.190;2023-02-25T17:22:17;6.32;;;1.10;;
37859;SDS011;23698;52.014;5.190;2023-02-25T17:28:00;12.18;;;1.30;;
37859;SDS011;23698;52.014;5.190;2023-02-25T17:30:47;10.88;;;1.63;;
37859;SDS011;23698;52.014;5.190;2023-02-25T17:33:34;5.00;;;1.23;;
37859;SDS011;23698;52.014;5.190;2023-02-25T17:36:32;4.32;;;1.27;;
37859;SDS011;23698;52.014;5.190;2023-02-25T17:39:20;8.60;;;1.40;;
37859;SDS011;23698;52.014;5.190;2023-02-25T17:48:28;3.80;;;1.17;;
37859;SDS011;23698;52.014;5.190;2023-02-25T17:51:16;7.87;;;1.20;;
37859;SDS011;23698;52.014;5.190;2023-02-25T17:54:04;11.63;;;1.77;;
37859;SDS011;23698;52.014;5.190;2023-02-25T17:56:56;8.80;;;1.23;;
37859;SDS011;23698;52.014;5.190;2023-02-25T17:59:48;5.50;;;1.20;;
37859;SDS011;23698;52.014;5.190;2023-02-25T18:02:37;9.38;;;2.08;;
37859;SDS011;23698;52.014;5.190;2023-02-25T18:05:25;7.90;;;1.52;;
37859;SDS011;23698;52.014;5.190;2023-02-25T18:08:16;6.30;;;1.90;;
37859;SDS011;23698;52.014;5.190;2023-02-25T18:11:18;6.22;;;1.20;;
37859;SDS011;23698;52.014;5.190;2023-02-25T18:14:20;15.68;;;1.80;;
37859;SDS011;23698;52.014;5.190;2023-02-25T18:17:15;6.38;;;1.70;;
37859;SDS011;23698;52.014;5.190;2023-02-25T18:20:22;13.57;;;1.85;;
37859;SDS011;23698;52.014;5.190;2023-02-25T18:23:15;6.05;;;1.50;;
37859;SDS011;23698;52.014;5.190;2023-02-25T18:26:15;5.55;;;1.55;;
37859;SDS011;23698;52.014;5.190;2023-02-25T18:29:04;7.78;;;1.70;;
37859;SDS011;23698;52.014;5.190;2023-02-25T18:31:53;10.25;;;2.83;;